sensor_id;sensor_type;location;lat;lon;timestamp;pressure;altitude;pressure_sealevel;temperature;humidity
16481;BME280;44634;54.110;12.138;2023-12-22T00:01:57;98122.97;;;6.98;100.00
16481;BME280;44634;54.110;12.138;2023-12-22T00:04:31;98109.03;;;6.98;100.00
16481;BME280;44634;54.110;12.138;2023-12-22T00:07:00;98117.81;;;7.20;100.00
16481;BME280;44634;54.110;12.138;2023-12-22T00:09:29;98169.13;;;6.93;100.00
16481;BME280;44634;54.110;12.138;2023-12-22T00:11:58;98108.03;;;6.99;100.00
16481;BME280;44634;54.110;12.138;2023-12-22T00:14:29;98125.53;;;7.21;100.00
16481;BME280;44634;54.110;12.138;2023-12-22T00:17:02;98142.63;;;7.02;100.00
16481;BME280;44634;54.110;12.138;2023-12-22T00:19:30;98149.06;;;7.00;100.00
16481;BME280;44634;54.110;12.138;2023-12-22T00:21:59;98132.84;;;6.96;100.00
16481;BME280;44634;54.110;12.138;2023-12-22T00:24:30;98138.38;;;7.01;100.00
16481;BME280;44634;54.110;12.138;2023-12-22T00:26:58;98173.41;;;6.94;100.00
16481;BME280;44634;54.110;12.138;2023-12-22T00:29:31;98136.84;;;7.07;100.00
16481;BME280;44634;54.110;12.138;2023-12-22T00:32:06;98148.53;;;7.04;100.00
16481;BME280;44634;54.110;12.138;2023-12-22T00:34:36;98154.41;;;6.69;100.00
16481;BME280;44634;54.110;12.138;2023-12-22T00:37:21;98161.88;;;6.80;100.00
16481;BME280;44634;54.110;12.138;2023-12-22T00:39:51;98200.03;;;6.68;100.00
16481;BME280;44634;54.110;12.138;2023-12-22T00:42:23;98197.47;;;6.60;100.00
16481;BME280;44634;54.110;12.138;2023-12-22T00:44:54;98186.19;;;6.74;100.00
16481;BME280;44634;54.110;12.138;2023-12-22T00:47:26;98154.59;;;6.67;100.00
16481;BME280;44634;54.110;12.138;2023-12-22T00:49:57;98187.94;;;6.59;100.00
16481;BME280;44634;54.110;12.138;2023-12-22T00:52:31;98168.41;;;6.61;100.00
16481;BME280;44634;54.110;12.138;2023-12-22T00:54:59;98185.69;;;6.55;100.00
16481;BME280;44634;54.110;12.138;2023-12-22T00:57:27;98181.53;;;6.84;100.00
16481;BME280;44634;54.110;12.138;2023-12-22T00:59:55;98195.03;;;6.81;100.00
16481;BME280;44634;54.110;12.138;2023-12-22T01:02:26;98226.75;;;6.71;100.00
16481;BME280;44634;54.110;12.138;2023-12-22T01:05:01;98211.53;;;6.67;100.00
16481;BME280;44634;54.110;12.138;2023-12-22T01:07:31;98199.22;;;6.67;100.00
16481;BME280;44634;54.110;12.138;2023-12-22T01:09:59;98221.41;;;6.88;100.00
16481;BME280;44634;54.110;12.138;2023-12-22T01:12:30;98239.91;;;6.40;100.00
16481;BME280;44634;54.110;12.138;2023-12-22T01:14:59;98272.50;;;6.54;100.00
16481;BME280;44634;54.110;12.138;2023-12-22T01:17:30;98245.00;;;6.65;100.00
16481;BME280;44634;54.110;12.138;2023-12-22T01:20:20;98227.44;;;6.65;100.00
16481;BME280;44634;54.110;12.138;2023-12-22T01:22:49;98249.75;;;6.92;100.00
16481;BME280;44634;54.110;12.138;2023-12-22T01:25:20;98243.69;;;6.69;100.00
16481;BME280;44634;54.110;12.138;2023-12-22T01:28:06;98232.59;;;6.59;100.00
16481;BME280;44634;54.110;12.138;2023-12-22T01:30:35;98260.44;;;6.68;100.00
16481;BME280;44634;54.110;12.138;2023-12-22T01:33:05;98241.16;;;6.75;100.00
16481;BME280;44634;54.110;12.138;2023-12-22T01:35:33;98231.38;;;6.69;100.00
16481;BME280;44634;54.110;12.138;2023-12-22T01:38:01;98215.31;;;6.64;100.00
16481;BME280;44634;54.110;12.138;2023-12-22T01:40:29;98275.38;;;6.67;100.00
16481;BME280;44634;54.110;12.138;2023-12-22T01:42:57;98275.41;;;6.59;100.00
16481;BME280;44634;54.110;12.138;2023-12-22T01:45:25;98265.44;;;6.54;100.00
16481;BME280;44634;54.110;12.138;2023-12-22T01:47:53;98256.81;;;6.69;100.00
16481;BME280;44634;54.110;12.138;2023-12-22T01:50:23;98328.38;;;6.63;100.00
16481;BME280;44634;54.110;12.138;2023-12-22T01:52:51;98247.13;;;6.69;100.00
16481;BME280;44634;54.110;12.138;2023-12-22T01:55:20;98257.38;;;6.79;100.00
16481;BME280;44634;54.110;12.138;2023-12-22T01:57:48;98287.94;;;6.80;100.00
16481;BME280;44634;54.110;12.138;2023-12-22T02:00:17;98253.66;;;6.73;100.00
16481;BME280;44634;54.110;12.138;2023-12-22T02:02:45;98255.94;;;6.99;100.00
16481;BME280;44634;54.110;12.138;2023-12-22T02:05:13;98225.56;;;6.82;100.00
16481;BME280;44634;54.110;12.138;2023-12-22T02:07:43;98236.91;;;6.74;100.00
16481;BME280;44634;54.110;12.138;2023-12-22T02:10:11;98268.63;;;6.65;100.00
16481;BME280;44634;54.110;12.138;2023-12-22T02:12:39;98256.78;;;7.00;100.00
16481;BME280;44634;54.110;12.138;2023-12-22T02:15:08;98256.72;;;6.85;100.00
16481;BME280;44634;54.110;12.138;2023-12-22T02:17:38;98226.34;;;7.05;100.00
16481;BME280;44634;54.110;12.138;2023-12-22T02:20:07;98235.66;;;6.62;100.00
16481;BME280;44634;54.110;12.138;2023-12-22T02:22:39;98243.41;;;6.86;100.00
16481;BME280;44634;54.110;12.138;2023-12-22T02:25:08;98250.69;;;6.76;100.00
16481;BME280;44634;54.110;12.138;2023-12-22T02:27:39;98234.56;;;7.02;100.00
16481;BME280;44634;54.110;12.138;2023-12-22T02:30:09;98241.47;;;6.80;100.00
16481;BME280;44634;54.110;12.138;2023-12-22T02:32:42;98234.41;;;6.81;100.00
16481;BME280;44634;54.110;12.138;2023-12-22T02:35:11;98230.91;;;6.89;100.00
16481;BME280;44634;54.110;12.138;2023-12-22T02:37:43;98217.31;;;7.23;100.00
16481;BME280;44634;54.110;12.138;2023-12-22T02:40:13;98237.19;;;7.25;100.00
16481;BME280;44634;54.110;12.138;2023-12-22T02:42:44;98228.41;;;6.95;100.00
16481;BME280;44634;54.110;12.138;2023-12-22T02:45:13;98237.34;;;7.09;100.00
16481;BME280;44634;54.110;12.138;2023-12-22T02:47:41;98221.25;;;7.27;100.00
16481;BME280;44634;54.110;12.138;2023-12-22T02:50:09;98206.63;;;7.09;100.00
16481;BME280;44634;54.110;12.138;2023-12-22T02:52:38;98229.56;;;6.70;100.00
16481;BME280;44634;54.110;12.138;2023-12-22T02:55:08;98205.72;;;7.17;100.00
16481;BME280;44634;54.110;12.138;2023-12-22T02:57:36;98179.91;;;7.21;100.00
16481;BME280;44634;54.110;12.138;2023-12-22T03:00:04;98200.25;;;7.04;100.00
16481;BME280;44634;54.110;12.138;2023-12-22T03:02:32;98188.44;;;7.37;100.00
16481;BME280;44634;54.110;12.138;2023-12-22T03:05:02;98181.09;;;7.33;100.00
16481;BME280;44634;54.110;12.138;2023-12-22T03:07:29;98235.25;;;7.19;100.00
16481;BME280;44634;54.110;12.138;2023-12-22T03:09:57;98194.41;;;7.16;100.00
16481;BME280;44634;54.110;12.138;2023-12-22T03:12:27;98173.75;;;7.28;100.00
16481;BME280;44634;54.110;12.138;2023-12-22T03:14:55;98235.34;;;7.11;100.00
16481;BME280;44634;54.110;12.138;2023-12-22T03:17:22;98220.66;;;7.16;100.00
16481;BME280;44634;54.110;12.138;2023-12-22T03:19:51;98226.69;;;7.02;100.00
16481;BME280;44634;54.110;12.138;2023-12-22T03:22:19;98210.25;;;7.23;100.00
16481;BME280;44634;54.110;12.138;2023-12-22T03:24:47;98226.38;;;7.20;100.00
16481;BME280;44634;54.110;12.138;2023-12-22T03:27:15;98231.28;;;7.23;100.00
16481;BME280;44634;54.110;12.138;2023-12-22T03:29:46;98206.94;;;7.44;100.00
16481;BME280;44634;54.110;12.138;2023-12-22T03:32:14;98212.94;;;7.38;100.00
16481;BME280;44634;54.110;12.138;2023-12-22T03:34:43;98217.91;;;7.33;100.00
16481;BME280;44634;54.110;12.138;2023-12-22T03:37:11;98201.19;;;7.11;100.00
16481;BME280;44634;54.110;12.138;2023-12-22T03:39:39;98197.66;;;7.19;100.00
16481;BME280;44634;54.110;12.138;2023-12-22T03:42:07;98212.97;;;6.92;100.00
16481;BME280;44634;54.110;12.138;2023-12-22T03:44:34;98192.59;;;7.32;100.00
16481;BME280;44634;54.110;12.138;2023-12-22T03:47:04;98221.72;;;7.07;100.00
16481;BME280;44634;54.110;12.138;2023-12-22T03:49:36;98238.66;;;7.05;100.00
16481;BME280;44634;54.110;12.138;2023-12-22T03:52:04;98213.06;;;7.22;100.00
16481;BME280;44634;54.110;12.138;2023-12-22T03:54:32;98220.66;;;7.16;100.00
16481;BME280;44634;54.110;12.138;2023-12-22T03:57:00;98269.84;;;6.85;100.00
16481;BME280;44634;54.110;12.138;2023-12-22T03:59:28;98238.44;;;6.92;100.00
16481;BME280;44634;54.110;12.138;2023-12-22T04:01:56;98256.06;;;7.06;100.00
16481;BME280;44634;54.110;12.138;2023-12-22T04:04:29;98240.41;;;6.90;100.00
16481;BME280;44634;54.110;12.138;2023-12-22T04:06:57;98244.97;;;6.73;100.00
16481;BME280;44634;54.110;12.138;2023-12-22T04:09:26;98228.75;;;6.92;100.00
16481;BME280;44634;54.110;12.138;2023-12-22T04:11:54;98210.06;;;6.87;100.00
16481;BME280;44634;54.110;12.138;2023-12-22T04:14:23;98218.22;;;6.46;100.00
16481;BME280;44634;54.110;12.138;2023-12-22T04:16:53;98237.38;;;6.55;100.00
16481;BME280;44634;54.110;12.138;2023-12-22T04:19:20;98227.97;;;6.30;100.00
16481;BME280;44634;54.110;12.138;2023-12-22T04:21:50;98206.44;;;6.11;100.00
16481;BME280;44634;54.110;12.138;2023-12-22T04:24:18;98202.88;;;5.88;100.00
16481;BME280;44634;54.110;12.138;2023-12-22T04:26:46;98206.63;;;6.02;100.00
16481;BME280;44634;54.110;12.138;2023-12-22T04:29:14;98182.56;;;5.90;100.00
16481;BME280;44634;54.110;12.138;2023-12-22T04:31:42;98181.78;;;6.20;100.00
16481;BME280;44634;54.110;12.138;2023-12-22T04:34:12;98192.06;;;5.99;100.00
16481;BME280;44634;54.110;12.138;2023-12-22T04:36:41;98195.72;;;6.21;100.00
16481;BME280;44634;54.110;12.138;2023-12-22T04:39:14;98233.53;;;5.87;100.00
16481;BME280;44634;54.110;12.138;2023-12-22T04:41:43;98199.88;;;6.07;100.00
16481;BME280;44634;54.110;12.138;2023-12-22T04:44:11;98190.59;;;5.88;100.00
16481;BME280;44634;54.110;12.138;2023-12-22T04:46:39;98173.13;;;5.73;100.00
16481;BME280;44634;54.110;12.138;2023-12-22T04:49:07;98169.09;;;6.01;100.00
16481;BME280;44634;54.110;12.138;2023-12-22T04:51:35;98191.44;;;5.81;100.00
16481;BME280;44634;54.110;12.138;2023-12-22T04:54:02;98163.22;;;5.91;100.00
16481;BME280;44634;54.110;12.138;2023-12-22T04:56:31;98190.72;;;6.03;100.00
16481;BME280;44634;54.110;12.138;2023-12-22T04:58:59;98203.56;;;5.82;100.00
16481;BME280;44634;54.110;12.138;2023-12-22T05:01:27;98168.44;;;5.99;100.00
16481;BME280;44634;54.110;12.138;2023-12-22T05:03:55;98172.41;;;5.95;100.00
16481;BME280;44634;54.110;12.138;2023-12-22T05:06:22;98140.28;;;5.46;100.00
16481;BME280;44634;54.110;12.138;2023-12-22T05:08:50;98111.91;;;5.49;100.00
16481;BME280;44634;54.110;12.138;2023-12-22T05:11:17;98100.06;;;5.70;100.00
16481;BME280;44634;54.110;12.138;2023-12-22T05:13:46;98110.47;;;5.86;100.00
16481;BME280;44634;54.110;12.138;2023-12-22T05:16:14;98087.72;;;5.78;100.00
16481;BME280;44634;54.110;12.138;2023-12-22T05:18:42;98081.06;;;5.67;100.00
16481;BME280;44634;54.110;12.138;2023-12-22T05:21:11;98103.97;;;5.26;100.00
16481;BME280;44634;54.110;12.138;2023-12-22T05:23:39;98098.88;;;5.41;100.00
16481;BME280;44634;54.110;12.138;2023-12-22T05:26:07;98115.22;;;5.43;100.00
16481;BME280;44634;54.110;12.138;2023-12-22T05:28:34;98084.59;;;5.52;100.00
16481;BME280;44634;54.110;12.138;2023-12-22T05:31:03;98095.00;;;5.68;100.00
16481;BME280;44634;54.110;12.138;2023-12-22T05:33:31;98135.13;;;5.68;100.00
16481;BME280;44634;54.110;12.138;2023-12-22T05:35:59;98120.13;;;5.85;100.00
16481;BME280;44634;54.110;12.138;2023-12-22T05:38:27;98122.78;;;6.16;100.00
16481;BME280;44634;54.110;12.138;2023-12-22T05:40:54;98150.63;;;5.78;100.00
16481;BME280;44634;54.110;12.138;2023-12-22T05:43:22;98150.72;;;6.01;100.00
16481;BME280;44634;54.110;12.138;2023-12-22T05:45:50;98151.28;;;6.19;100.00
16481;BME280;44634;54.110;12.138;2023-12-22T05:48:19;98159.22;;;6.11;100.00
16481;BME280;44634;54.110;12.138;2023-12-22T05:50:48;98159.28;;;6.26;100.00
16481;BME280;44634;54.110;12.138;2023-12-22T05:53:16;98162.63;;;6.43;100.00
16481;BME280;44634;54.110;12.138;2023-12-22T05:55:43;98165.25;;;6.43;100.00
16481;BME280;44634;54.110;12.138;2023-12-22T05:58:11;98184.22;;;6.53;100.00
16481;BME280;44634;54.110;12.138;2023-12-22T06:00:39;98202.41;;;6.77;100.00
16481;BME280;44634;54.110;12.138;2023-12-22T06:03:06;98231.78;;;6.58;100.00
16481;BME280;44634;54.110;12.138;2023-12-22T06:05:35;98199.69;;;6.71;100.00
16481;BME280;44634;54.110;12.138;2023-12-22T06:08:03;98192.44;;;6.73;100.00
16481;BME280;44634;54.110;12.138;2023-12-22T06:10:31;98241.97;;;6.53;100.00
16481;BME280;44634;54.110;12.138;2023-12-22T06:12:59;98220.34;;;6.74;100.00
16481;BME280;44634;54.110;12.138;2023-12-22T06:15:30;98216.19;;;6.79;100.00
16481;BME280;44634;54.110;12.138;2023-12-22T06:17:57;98228.56;;;6.71;100.00
16481;BME280;44634;54.110;12.138;2023-12-22T06:20:25;98226.75;;;6.94;100.00
16481;BME280;44634;54.110;12.138;2023-12-22T06:22:54;98244.38;;;6.63;100.00
16481;BME280;44634;54.110;12.138;2023-12-22T06:25:22;98231.72;;;6.66;100.00
16481;BME280;44634;54.110;12.138;2023-12-22T06:27:50;98252.84;;;6.73;100.00
16481;BME280;44634;54.110;12.138;2023-12-22T06:30:17;98249.56;;;6.94;100.00
16481;BME280;44634;54.110;12.138;2023-12-22T06:32:45;98244.31;;;6.94;100.00
16481;BME280;44634;54.110;12.138;2023-12-22T06:35:14;98264.63;;;6.54;100.00
16481;BME280;44634;54.110;12.138;2023-12-22T06:37:43;98266.78;;;6.73;100.00
16481;BME280;44634;54.110;12.138;2023-12-22T06:40:13;98249.00;;;7.06;100.00
16481;BME280;44634;54.110;12.138;2023-12-22T06:42:41;98272.91;;;6.66;100.00
16481;BME280;44634;54.110;12.138;2023-12-22T06:45:09;98284.34;;;6.73;100.00
16481;BME280;44634;54.110;12.138;2023-12-22T06:47:37;98296.56;;;6.66;100.00
16481;BME280;44634;54.110;12.138;2023-12-22T06:50:05;98285.25;;;6.57;100.00
16481;BME280;44634;54.110;12.138;2023-12-22T06:52:33;98275.69;;;6.64;100.00
16481;BME280;44634;54.110;12.138;2023-12-22T06:55:01;98297.78;;;6.78;100.00
16481;BME280;44634;54.110;12.138;2023-12-22T06:57:30;98291.22;;;6.51;100.00
16481;BME280;44634;54.110;12.138;2023-12-22T07:00:01;98316.38;;;6.68;100.00
16481;BME280;44634;54.110;12.138;2023-12-22T07:02:29;98328.00;;;6.74;100.00
16481;BME280;44634;54.110;12.138;2023-12-22T07:07:45;98339.94;;;6.45;100.00
16481;BME280;44634;54.110;12.138;2023-12-22T07:10:13;98337.47;;;6.52;100.00
16481;BME280;44634;54.110;12.138;2023-12-22T07:12:42;98383.44;;;6.32;100.00
16481;BME280;44634;54.110;12.138;2023-12-22T07:15:10;98353.47;;;6.65;100.00
16481;BME280;44634;54.110;12.138;2023-12-22T07:17:38;98359.13;;;6.46;100.00
16481;BME280;44634;54.110;12.138;2023-12-22T07:20:06;98319.47;;;6.33;100.00
16481;BME280;44634;54.110;12.138;2023-12-22T07:22:35;98366.72;;;6.33;100.00
16481;BME280;44634;54.110;12.138;2023-12-22T07:25:03;98376.00;;;6.60;100.00
16481;BME280;44634;54.110;12.138;2023-12-22T07:27:31;98393.38;;;6.61;100.00
16481;BME280;44634;54.110;12.138;2023-12-22T07:30:01;98372.41;;;6.52;100.00
16481;BME280;44634;54.110;12.138;2023-12-22T07:32:28;98387.28;;;6.68;100.00
16481;BME280;44634;54.110;12.138;2023-12-22T07:34:56;98391.56;;;6.61;100.00
16481;BME280;44634;54.110;12.138;2023-12-22T07:37:26;98400.97;;;6.47;100.00
16481;BME280;44634;54.110;12.138;2023-12-22T07:39:54;98379.44;;;6.60;100.00
16481;BME280;44634;54.110;12.138;2023-12-22T07:42:24;98389.97;;;6.44;100.00
16481;BME280;44634;54.110;12.138;2023-12-22T07:44:53;98368.41;;;6.65;100.00
16481;BME280;44634;54.110;12.138;2023-12-22T07:47:22;98410.75;;;6.70;100.00
16481;BME280;44634;54.110;12.138;2023-12-22T07:49:50;98416.00;;;6.62;100.00
16481;BME280;44634;54.110;12.138;2023-12-22T07:52:18;98427.06;;;6.96;100.00
16481;BME280;44634;54.110;12.138;2023-12-22T07:54:46;98410.75;;;7.09;100.00
16481;BME280;44634;54.110;12.138;2023-12-22T07:57:14;98433.34;;;6.79;100.00
16481;BME280;44634;54.110;12.138;2023-12-22T07:59:42;98416.56;;;6.96;100.00
16481;BME280;44634;54.110;12.138;2023-12-22T08:02:10;98413.03;;;6.65;100.00
16481;BME280;44634;54.110;12.138;2023-12-22T08:04:39;98407.44;;;7.07;100.00
16481;BME280;44634;54.110;12.138;2023-12-22T08:07:07;98469.47;;;6.77;100.00
16481;BME280;44634;54.110;12.138;2023-12-22T08:09:35;98426.81;;;6.75;100.00
16481;BME280;44634;54.110;12.138;2023-12-22T08:12:03;98430.78;;;6.63;100.00
16481;BME280;44634;54.110;12.138;2023-12-22T08:14:31;98405.56;;;6.53;100.00
16481;BME280;44634;54.110;12.138;2023-12-22T08:16:59;98427.72;;;6.43;100.00
16481;BME280;44634;54.110;12.138;2023-12-22T08:19:27;98417.56;;;6.32;100.00
16481;BME280;44634;54.110;12.138;2023-12-22T08:21:59;98418.06;;;6.19;100.00
16481;BME280;44634;54.110;12.138;2023-12-22T08:24:31;98419.78;;;6.67;100.00
16481;BME280;44634;54.110;12.138;2023-12-22T08:26:59;98423.84;;;6.14;100.00
16481;BME280;44634;54.110;12.138;2023-12-22T08:29:26;98485.94;;;6.46;100.00
16481;BME280;44634;54.110;12.138;2023-12-22T08:31:54;98468.25;;;5.91;100.00
16481;BME280;44634;54.110;12.138;2023-12-22T08:34:22;98470.91;;;6.24;100.00
16481;BME280;44634;54.110;12.138;2023-12-22T08:36:49;98493.50;;;6.41;100.00
16481;BME280;44634;54.110;12.138;2023-12-22T08:39:19;98462.50;;;6.53;100.00
16481;BME280;44634;54.110;12.138;2023-12-22T08:41:47;98500.38;;;6.50;100.00
16481;BME280;44634;54.110;12.138;2023-12-22T08:44:15;98502.19;;;6.42;100.00
16481;BME280;44634;54.110;12.138;2023-12-22T08:46:43;98526.97;;;6.47;100.00
16481;BME280;44634;54.110;12.138;2023-12-22T08:49:10;98494.75;;;6.78;100.00
16481;BME280;44634;54.110;12.138;2023-12-22T08:51:38;98516.47;;;6.55;100.00
16481;BME280;44634;54.110;12.138;2023-12-22T08:54:07;98516.81;;;6.52;100.00
16481;BME280;44634;54.110;12.138;2023-12-22T08:56:36;98522.06;;;6.52;100.00
16481;BME280;44634;54.110;12.138;2023-12-22T08:59:04;98555.50;;;6.59;100.00
16481;BME280;44634;54.110;12.138;2023-12-22T09:01:31;98547.78;;;6.57;100.00
16481;BME280;44634;54.110;12.138;2023-12-22T09:03:59;98541.69;;;6.81;100.00
16481;BME280;44634;54.110;12.138;2023-12-22T09:06:28;98548.75;;;6.80;100.00
16481;BME280;44634;54.110;12.138;2023-12-22T09:08:56;98545.47;;;6.78;100.00
16481;BME280;44634;54.110;12.138;2023-12-22T09:11:24;98563.19;;;6.84;100.00
16481;BME280;44634;54.110;12.138;2023-12-22T09:13:53;98583.41;;;6.60;100.00
16481;BME280;44634;54.110;12.138;2023-12-22T09:16:22;98585.69;;;6.46;100.00
16481;BME280;44634;54.110;12.138;2023-12-22T09:18:50;98557.81;;;6.45;100.00
16481;BME280;44634;54.110;12.138;2023-12-22T09:21:19;98567.13;;;6.64;100.00
16481;BME280;44634;54.110;12.138;2023-12-22T09:23:47;98574.03;;;6.65;100.00
16481;BME280;44634;54.110;12.138;2023-12-22T09:26:26;98619.34;;;6.67;100.00
16481;BME280;44634;54.110;12.138;2023-12-22T09:28:58;98576.34;;;6.68;100.00
16481;BME280;44634;54.110;12.138;2023-12-22T09:31:59;98580.94;;;6.66;100.00
16481;BME280;44634;54.110;12.138;2023-12-22T09:34:41;98582.91;;;6.56;100.00
16481;BME280;44634;54.110;12.138;2023-12-22T09:37:10;98594.84;;;6.91;100.00
16481;BME280;44634;54.110;12.138;2023-12-22T09:39:38;98610.31;;;6.70;100.00
16481;BME280;44634;54.110;12.138;2023-12-22T09:42:05;98589.66;;;6.67;100.00
16481;BME280;44634;54.110;12.138;2023-12-22T09:44:35;98590.25;;;7.01;100.00
16481;BME280;44634;54.110;12.138;2023-12-22T09:47:04;98607.19;;;6.50;100.00
16481;BME280;44634;54.110;12.138;2023-12-22T09:49:33;98588.16;;;6.72;100.00
16481;BME280;44634;54.110;12.138;2023-12-22T09:52:02;98593.56;;;6.71;100.00
16481;BME280;44634;54.110;12.138;2023-12-22T09:54:31;98648.06;;;6.61;100.00
16481;BME280;44634;54.110;12.138;2023-12-22T09:57:01;98610.63;;;6.75;100.00
16481;BME280;44634;54.110;12.138;2023-12-22T09:59:49;98577.41;;;7.06;100.00
16481;BME280;44634;54.110;12.138;2023-12-22T10:02:19;98605.63;;;7.21;100.00
16481;BME280;44634;54.110;12.138;2023-12-22T10:04:48;98620.81;;;6.70;100.00
16481;BME280;44634;54.110;12.138;2023-12-22T10:07:16;98623.56;;;6.93;100.00
16481;BME280;44634;54.110;12.138;2023-12-22T10:09:44;98632.91;;;7.20;100.00
16481;BME280;44634;54.110;12.138;2023-12-22T10:12:14;98678.44;;;6.96;100.00
16481;BME280;44634;54.110;12.138;2023-12-22T10:14:43;98672.97;;;7.30;100.00
16481;BME280;44634;54.110;12.138;2023-12-22T10:17:12;98690.72;;;6.79;100.00
16481;BME280;44634;54.110;12.138;2023-12-22T10:19:39;98680.72;;;7.15;100.00
16481;BME280;44634;54.110;12.138;2023-12-22T10:22:08;98709.28;;;6.94;100.00
16481;BME280;44634;54.110;12.138;2023-12-22T10:24:39;98722.75;;;6.91;100.00
16481;BME280;44634;54.110;12.138;2023-12-22T10:29:41;98683.56;;;8.47;100.00
16481;BME280;44634;54.110;12.138;2023-12-22T10:32:08;98733.06;;;7.57;100.00
16481;BME280;44634;54.110;12.138;2023-12-22T10:34:38;98695.16;;;8.30;100.00
16481;BME280;44634;54.110;12.138;2023-12-22T10:37:05;98725.03;;;8.06;100.00
16481;BME280;44634;54.110;12.138;2023-12-22T10:39:33;98697.44;;;8.41;100.00
16481;BME280;44634;54.110;12.138;2023-12-22T10:42:03;98701.19;;;8.92;100.00
16481;BME280;44634;54.110;12.138;2023-12-22T10:44:31;98705.16;;;8.65;100.00
16481;BME280;44634;54.110;12.138;2023-12-22T10:47:00;98722.56;;;8.75;100.00
16481;BME280;44634;54.110;12.138;2023-12-22T10:49:29;98731.03;;;9.08;100.00
16481;BME280;44634;54.110;12.138;2023-12-22T10:51:59;98715.25;;;8.23;100.00
16481;BME280;44634;54.110;12.138;2023-12-22T10:54:27;98760.81;;;7.84;100.00
16481;BME280;44634;54.110;12.138;2023-12-22T10:56:57;98724.78;;;7.85;100.00
16481;BME280;44634;54.110;12.138;2023-12-22T10:59:25;98741.63;;;7.51;100.00
16481;BME280;44634;54.110;12.138;2023-12-22T11:01:57;98730.13;;;8.07;100.00
16481;BME280;44634;54.110;12.138;2023-12-22T11:04:29;98761.75;;;7.99;100.00
16481;BME280;44634;54.110;12.138;2023-12-22T11:06:59;98718.22;;;8.20;100.00
16481;BME280;44634;54.110;12.138;2023-12-22T11:09:27;98745.25;;;8.14;100.00
16481;BME280;44634;54.110;12.138;2023-12-22T11:11:59;98752.09;;;8.23;100.00
16481;BME280;44634;54.110;12.138;2023-12-22T11:14:29;98744.00;;;8.72;100.00
16481;BME280;44634;54.110;12.138;2023-12-22T11:16:58;98735.06;;;8.50;100.00
16481;BME280;44634;54.110;12.138;2023-12-22T11:19:28;98752.09;;;8.23;100.00
16481;BME280;44634;54.110;12.138;2023-12-22T11:21:59;98749.16;;;8.88;100.00
16481;BME280;44634;54.110;12.138;2023-12-22T11:24:29;98760.69;;;8.17;100.00
16481;BME280;44634;54.110;12.138;2023-12-22T11:26:58;98767.03;;;7.91;100.00
16481;BME280;44634;54.110;12.138;2023-12-22T11:29:27;98734.09;;;7.95;100.00
16481;BME280;44634;54.110;12.138;2023-12-22T11:31:55;98775.25;;;7.96;100.00
16481;BME280;44634;54.110;12.138;2023-12-22T11:34:29;98761.94;;;7.90;100.00
16481;BME280;44634;54.110;12.138;2023-12-22T11:37:00;98799.53;;;8.15;100.00
16481;BME280;44634;54.110;12.138;2023-12-22T11:39:27;98753.41;;;8.35;100.00
16481;BME280;44634;54.110;12.138;2023-12-22T11:41:56;98761.84;;;7.59;100.00
16481;BME280;44634;54.110;12.138;2023-12-22T11:44:25;98768.19;;;7.89;100.00
16481;BME280;44634;54.110;12.138;2023-12-22T11:47:02;98782.03;;;6.85;100.00
16481;BME280;44634;54.110;12.138;2023-12-22T11:49:33;98762.38;;;8.01;100.00
16481;BME280;44634;54.110;12.138;2023-12-22T11:52:10;98765.63;;;7.40;100.00
16481;BME280;44634;54.110;12.138;2023-12-22T11:54:44;98747.47;;;8.33;100.00
16481;BME280;44634;54.110;12.138;2023-12-22T11:57:34;98773.69;;;7.30;100.00
16481;BME280;44634;54.110;12.138;2023-12-22T12:00:06;98787.31;;;7.50;100.00
16481;BME280;44634;54.110;12.138;2023-12-22T12:02:39;98793.72;;;7.47;100.00
16481;BME280;44634;54.110;12.138;2023-12-22T12:05:08;98762.34;;;7.54;100.00
16481;BME280;44634;54.110;12.138;2023-12-22T12:07:38;98775.09;;;6.76;100.00
16481;BME280;44634;54.110;12.138;2023-12-22T12:10:06;98767.94;;;7.43;100.00
16481;BME280;44634;54.110;12.138;2023-12-22T12:12:34;98771.38;;;7.68;100.00
16481;BME280;44634;54.110;12.138;2023-12-22T12:15:12;98757.25;;;8.08;100.00
16481;BME280;44634;54.110;12.138;2023-12-22T12:17:41;98755.31;;;8.49;100.00
16481;BME280;44634;54.110;12.138;2023-12-22T12:20:10;98773.44;;;7.89;100.00
16481;BME280;44634;54.110;12.138;2023-12-22T12:22:42;98745.94;;;8.47;100.00
16481;BME280;44634;54.110;12.138;2023-12-22T12:25:11;98757.81;;;8.43;100.00
16481;BME280;44634;54.110;12.138;2023-12-22T12:28:00;98776.69;;;8.07;100.00
16481;BME280;44634;54.110;12.138;2023-12-22T12:30:28;98759.47;;;8.35;100.00
16481;BME280;44634;54.110;12.138;2023-12-22T12:32:58;98785.06;;;8.58;100.00
16481;BME280;44634;54.110;12.138;2023-12-22T12:35:29;98786.72;;;8.82;100.00
16481;BME280;44634;54.110;12.138;2023-12-22T12:37:59;98779.19;;;8.48;100.00
16481;BME280;44634;54.110;12.138;2023-12-22T12:40:27;98805.88;;;8.37;100.00
16481;BME280;44634;54.110;12.138;2023-12-22T12:42:59;98773.63;;;8.97;100.00
16481;BME280;44634;54.110;12.138;2023-12-22T12:45:27;98772.94;;;9.03;100.00
16481;BME280;44634;54.110;12.138;2023-12-22T12:47:55;98756.31;;;9.92;100.00
16481;BME280;44634;54.110;12.138;2023-12-22T12:50:25;98754.34;;;9.19;100.00
16481;BME280;44634;54.110;12.138;2023-12-22T12:52:55;98776.94;;;8.99;100.00
16481;BME280;44634;54.110;12.138;2023-12-22T12:55:26;98785.91;;;8.03;100.00
16481;BME280;44634;54.110;12.138;2023-12-22T12:57:54;98744.38;;;8.60;100.00
16481;BME280;44634;54.110;12.138;2023-12-22T13:00:25;98761.09;;;8.76;100.00
16481;BME280;44634;54.110;12.138;2023-12-22T13:02:53;98763.22;;;9.03;100.00
16481;BME280;44634;54.110;12.138;2023-12-22T13:05:22;98743.75;;;9.04;100.00
16481;BME280;44634;54.110;12.138;2023-12-22T13:07:50;98781.66;;;9.03;100.00